DLH2LL EDDF-LIMC
Flight info
| Callsign | DLH2LL |
|---|---|
| Flight time | 0h 54m |
| Altitude | 33000 |
| Route | ANEKI2L/18 ANEKI Y163 NATOR DCT DITON DCT BASGO Z424 RIXUV |
| Aircraft | A321/M-SDE2E3FGIJ1LORWXYZ/HB1 |
Departure
| Time | 2026-05-07 13:50 |
|---|---|
| Airport | Frankfurt Main Airport (EDDF) |
Arrival
| Time | 2026-05-07 14:44 |
|---|---|
| Airport | Milan Malpensa International Airport (LIMC) |
| Time | Latitude | Longitude | Altitude | Speed | Heading |
|---|---|---|---|---|---|
| 2026-05-07 13:05 | 50.04706 | 8.56252 | 360 ft | 0 kts | 341° |
| 2026-05-07 13:38 | 50.04700 | 8.56254 | 363 ft | 4 kts | 341° |
| 2026-05-07 13:38 | 50.04675 | 8.56268 | 363 ft | 4 kts | 341° |
| 2026-05-07 13:38 | 50.04649 | 8.56282 | 361 ft | 4 kts | 335° |
| 2026-05-07 13:38 | 50.04627 | 8.56303 | 362 ft | 4 kts | 306° |
| 2026-05-07 13:39 | 50.04623 | 8.56331 | 359 ft | 4 kts | 250° |
| 2026-05-07 13:39 | 50.04633 | 8.56370 | 362 ft | 3 kts | 250° |
| 2026-05-07 13:39 | 50.04634 | 8.56377 | 359 ft | 0 kts | 250° |
| 2026-05-07 13:42 | 50.04634 | 8.56376 | 359 ft | 1 kts | 250° |
| 2026-05-07 13:42 | 50.04629 | 8.56356 | 363 ft | 4 kts | 250° |
| 2026-05-07 13:42 | 50.04617 | 8.56305 | 360 ft | 6 kts | 250° |
| 2026-05-07 13:42 | 50.04601 | 8.56238 | 356 ft | 7 kts | 250° |
| 2026-05-07 13:43 | 50.04582 | 8.56155 | 364 ft | 9 kts | 250° |
| 2026-05-07 13:43 | 50.04558 | 8.56056 | 356 ft | 10 kts | 250° |
| 2026-05-07 13:43 | 50.04503 | 8.55982 | 359 ft | 12 kts | 201° |
| 2026-05-07 13:43 | 50.04423 | 8.55941 | 356 ft | 13 kts | 198° |
| 2026-05-07 13:44 | 50.04334 | 8.55935 | 357 ft | 14 kts | 162° |
| 2026-05-07 13:44 | 50.04242 | 8.55928 | 355 ft | 15 kts | 227° |
| 2026-05-07 13:44 | 50.04198 | 8.55771 | 353 ft | 17 kts | 250° |
| 2026-05-07 13:44 | 50.04156 | 8.55592 | 351 ft | 19 kts | 249° |
| 2026-05-07 13:45 | 50.04110 | 8.55400 | 359 ft | 19 kts | 249° |
| 2026-05-07 13:45 | 50.04063 | 8.55205 | 358 ft | 19 kts | 250° |
| 2026-05-07 13:45 | 50.04016 | 8.55006 | 356 ft | 20 kts | 250° |
| 2026-05-07 13:45 | 50.03965 | 8.54792 | 357 ft | 22 kts | 249° |
| 2026-05-07 13:46 | 50.03909 | 8.54559 | 357 ft | 24 kts | 249° |
| 2026-05-07 13:46 | 50.03858 | 8.54370 | 353 ft | 18 kts | 239° |
| 2026-05-07 13:46 | 50.03794 | 8.54201 | 355 ft | 19 kts | 248° |
| 2026-05-07 13:46 | 50.03748 | 8.54008 | 347 ft | 18 kts | 249° |
| 2026-05-07 13:47 | 50.03703 | 8.53821 | 348 ft | 19 kts | 250° |
| 2026-05-07 13:47 | 50.03654 | 8.53618 | 347 ft | 21 kts | 248° |
| 2026-05-07 13:47 | 50.03605 | 8.53421 | 336 ft | 19 kts | 250° |
| 2026-05-07 13:47 | 50.03559 | 8.53231 | 338 ft | 20 kts | 250° |
| 2026-05-07 13:48 | 50.03510 | 8.53024 | 335 ft | 21 kts | 250° |
| 2026-05-07 13:48 | 50.03463 | 8.52844 | 335 ft | 18 kts | 246° |
| 2026-05-07 13:48 | 50.03421 | 8.52681 | 333 ft | 15 kts | 249° |
| 2026-05-07 13:48 | 50.03354 | 8.52594 | 336 ft | 13 kts | 182° |
| 2026-05-07 13:49 | 50.03348 | 8.52594 | 336 ft | 0 kts | 177° |
| 2026-05-07 13:49 | 50.03303 | 8.52596 | 332 ft | 29 kts | 179° |
| 2026-05-07 13:49 | 50.02831 | 8.52598 | 335 ft | 103 kts | 180° |
| 2026-05-07 13:50 | 50.01902 | 8.52609 | 339 ft | 161 kts | 180° |
| 2026-05-07 13:50 | 50.00784 | 8.52604 | 1019 ft | 159 kts | 183° |
| 2026-05-07 13:50 | 49.99682 | 8.52489 | 1758 ft | 158 kts | 188° |
| 2026-05-07 13:50 | 49.98550 | 8.52395 | 2211 ft | 170 kts | 180° |
| 2026-05-07 13:51 | 49.97291 | 8.52519 | 2486 ft | 192 kts | 176° |
| 2026-05-07 13:51 | 49.95888 | 8.52703 | 2734 ft | 214 kts | 176° |
| 2026-05-07 13:51 | 49.94331 | 8.52893 | 3069 ft | 233 kts | 177° |
| 2026-05-07 13:51 | 49.92705 | 8.53069 | 3841 ft | 235 kts | 178° |
| 2026-05-07 13:52 | 49.91059 | 8.53225 | 4673 ft | 238 kts | 178° |
| 2026-05-07 13:52 | 49.89399 | 8.53367 | 5451 ft | 240 kts | 178° |
| 2026-05-07 13:52 | 49.87719 | 8.53496 | 6225 ft | 243 kts | 179° |
| 2026-05-07 13:52 | 49.86023 | 8.53617 | 6966 ft | 246 kts | 179° |
| 2026-05-07 13:53 | 49.84304 | 8.53737 | 7673 ft | 249 kts | 179° |
| 2026-05-07 13:53 | 49.82563 | 8.53856 | 8399 ft | 252 kts | 179° |
| 2026-05-07 13:53 | 49.80807 | 8.53974 | 9129 ft | 254 kts | 179° |
| 2026-05-07 13:53 | 49.79027 | 8.54093 | 9860 ft | 257 kts | 179° |
| 2026-05-07 13:54 | 49.77225 | 8.54044 | 10392 ft | 266 kts | 186° |
| 2026-05-07 13:54 | 49.75304 | 8.53791 | 10593 ft | 289 kts | 186° |
| 2026-05-07 13:54 | 49.73224 | 8.53507 | 10756 ft | 312 kts | 186° |
| 2026-05-07 13:54 | 49.71018 | 8.53205 | 10903 ft | 333 kts | 186° |
| 2026-05-07 13:55 | 49.68675 | 8.52887 | 11364 ft | 341 kts | 186° |
| 2026-05-07 13:55 | 49.66292 | 8.52572 | 11950 ft | 346 kts | 186° |
| 2026-05-07 13:55 | 49.63886 | 8.52257 | 12574 ft | 349 kts | 186° |
| 2026-05-07 13:55 | 49.61455 | 8.51942 | 13202 ft | 352 kts | 186° |
| 2026-05-07 13:56 | 49.58996 | 8.51625 | 13818 ft | 356 kts | 186° |
| 2026-05-07 13:56 | 49.56514 | 8.51305 | 14376 ft | 359 kts | 186° |
| 2026-05-07 13:56 | 49.54018 | 8.50977 | 14960 ft | 362 kts | 186° |
| 2026-05-07 13:56 | 49.51502 | 8.50640 | 15542 ft | 364 kts | 186° |
| 2026-05-07 13:57 | 49.48970 | 8.50301 | 16136 ft | 366 kts | 186° |
| 2026-05-07 13:57 | 49.46421 | 8.49964 | 16719 ft | 369 kts | 186° |
| 2026-05-07 13:57 | 49.43858 | 8.49630 | 17299 ft | 371 kts | 186° |
| 2026-05-07 13:57 | 49.41276 | 8.49292 | 17869 ft | 373 kts | 187° |
| 2026-05-07 13:58 | 49.38679 | 8.48948 | 18420 ft | 376 kts | 187° |
| 2026-05-07 13:58 | 49.36063 | 8.48602 | 18912 ft | 378 kts | 187° |
| 2026-05-07 13:58 | 49.33431 | 8.48257 | 19404 ft | 381 kts | 187° |
| 2026-05-07 13:58 | 49.30784 | 8.47911 | 19889 ft | 383 kts | 187° |
| 2026-05-07 13:59 | 49.28121 | 8.47566 | 20366 ft | 385 kts | 187° |
| 2026-05-07 13:59 | 49.25443 | 8.47221 | 20835 ft | 387 kts | 187° |
| 2026-05-07 13:59 | 49.22750 | 8.46875 | 21291 ft | 390 kts | 187° |
| 2026-05-07 13:59 | 49.20041 | 8.46526 | 21744 ft | 392 kts | 187° |
| 2026-05-07 14:00 | 49.17318 | 8.46171 | 22212 ft | 393 kts | 187° |
| 2026-05-07 14:00 | 49.14582 | 8.45814 | 22660 ft | 396 kts | 187° |
| 2026-05-07 14:00 | 49.11835 | 8.45459 | 23102 ft | 398 kts | 187° |
| 2026-05-07 14:00 | 49.09065 | 8.45102 | 23542 ft | 400 kts | 187° |
| 2026-05-07 14:01 | 49.06291 | 8.44676 | 23918 ft | 401 kts | 192° |
| 2026-05-07 14:01 | 49.03562 | 8.43792 | 24282 ft | 402 kts | 195° |
| 2026-05-07 14:01 | 49.00828 | 8.42838 | 24656 ft | 404 kts | 195° |
| 2026-05-07 14:01 | 48.98081 | 8.41876 | 25018 ft | 406 kts | 195° |
| 2026-05-07 14:02 | 48.95321 | 8.40910 | 25379 ft | 408 kts | 195° |
| 2026-05-07 14:02 | 48.92545 | 8.39942 | 25762 ft | 410 kts | 195° |
| 2026-05-07 14:02 | 48.89754 | 8.38972 | 26134 ft | 412 kts | 195° |
| 2026-05-07 14:02 | 48.86954 | 8.38000 | 26502 ft | 414 kts | 195° |
| 2026-05-07 14:03 | 48.84137 | 8.37024 | 26863 ft | 416 kts | 195° |
| 2026-05-07 14:03 | 48.81308 | 8.36046 | 27223 ft | 418 kts | 195° |
| 2026-05-07 14:03 | 48.78463 | 8.35064 | 27579 ft | 420 kts | 195° |
| 2026-05-07 14:03 | 48.75607 | 8.34056 | 27925 ft | 422 kts | 195° |
| 2026-05-07 14:04 | 48.72747 | 8.33018 | 28267 ft | 424 kts | 195° |
| 2026-05-07 14:04 | 48.69872 | 8.31958 | 28599 ft | 426 kts | 196° |
| 2026-05-07 14:04 | 48.66987 | 8.30890 | 28951 ft | 428 kts | 196° |
| 2026-05-07 14:04 | 48.64090 | 8.29817 | 29285 ft | 430 kts | 196° |
| 2026-05-07 14:05 | 48.61177 | 8.28745 | 29612 ft | 432 kts | 195° |
| 2026-05-07 14:05 | 48.58254 | 8.27679 | 29954 ft | 434 kts | 195° |
| 2026-05-07 14:05 | 48.55309 | 8.26611 | 30247 ft | 436 kts | 195° |
| 2026-05-07 14:05 | 48.52354 | 8.25557 | 30499 ft | 438 kts | 193° |
| 2026-05-07 14:06 | 48.49322 | 8.24961 | 30719 ft | 443 kts | 185° |
| 2026-05-07 14:06 | 48.46225 | 8.25091 | 30933 ft | 448 kts | 175° |
| 2026-05-07 14:06 | 48.43135 | 8.25806 | 31149 ft | 450 kts | 173° |
| 2026-05-07 14:06 | 48.40035 | 8.26569 | 31359 ft | 452 kts | 173° |
| 2026-05-07 14:07 | 48.36931 | 8.27325 | 31642 ft | 452 kts | 173° |
| 2026-05-07 14:07 | 48.33825 | 8.28077 | 31911 ft | 452 kts | 173° |
| 2026-05-07 14:07 | 48.30714 | 8.28824 | 32183 ft | 452 kts | 173° |
| 2026-05-07 14:07 | 48.27609 | 8.29568 | 32449 ft | 452 kts | 173° |
| 2026-05-07 14:08 | 48.24503 | 8.30314 | 32713 ft | 453 kts | 173° |
| 2026-05-07 14:08 | 48.21392 | 8.31063 | 32956 ft | 453 kts | 173° |
| 2026-05-07 14:08 | 48.18287 | 8.31809 | 33035 ft | 446 kts | 174° |
| 2026-05-07 14:09 | 48.12213 | 8.32210 | 33034 ft | 433 kts | 182° |
| 2026-05-07 14:09 | 48.06231 | 8.32284 | 33043 ft | 432 kts | 182° |
| 2026-05-07 14:10 | 48.00177 | 8.32363 | 33041 ft | 432 kts | 182° |
| 2026-05-07 14:10 | 47.94201 | 8.32448 | 33043 ft | 432 kts | 182° |
| 2026-05-07 14:11 | 47.88146 | 8.32531 | 33031 ft | 432 kts | 182° |
| 2026-05-07 14:11 | 47.82176 | 8.32608 | 33036 ft | 432 kts | 182° |
| 2026-05-07 14:12 | 47.76167 | 8.32690 | 33033 ft | 432 kts | 182° |
| 2026-05-07 14:12 | 47.70153 | 8.32771 | 33020 ft | 432 kts | 182° |
| 2026-05-07 14:13 | 47.64146 | 8.32863 | 33016 ft | 432 kts | 182° |
| 2026-05-07 14:13 | 47.58140 | 8.32952 | 33019 ft | 432 kts | 182° |
| 2026-05-07 14:14 | 47.52129 | 8.33039 | 33025 ft | 432 kts | 182° |
| 2026-05-07 14:14 | 47.46120 | 8.33122 | 33010 ft | 432 kts | 183° |
| 2026-05-07 14:15 | 47.40116 | 8.33203 | 33018 ft | 432 kts | 183° |
| 2026-05-07 14:15 | 47.34106 | 8.33278 | 33026 ft | 432 kts | 183° |
| 2026-05-07 14:16 | 47.28098 | 8.33458 | 33007 ft | 432 kts | 180° |
| 2026-05-07 14:16 | 47.22088 | 8.34226 | 33006 ft | 434 kts | 178° |
| 2026-05-07 14:17 | 47.16089 | 8.35226 | 33011 ft | 434 kts | 177° |
| 2026-05-07 14:17 | 47.10075 | 8.36137 | 33029 ft | 434 kts | 178° |
| 2026-05-07 14:18 | 47.04059 | 8.36948 | 33010 ft | 434 kts | 179° |
| 2026-05-07 14:18 | 46.98040 | 8.37741 | 33014 ft | 435 kts | 179° |
| 2026-05-07 14:19 | 46.92097 | 8.38539 | 32626 ft | 421 kts | 179° |
| 2026-05-07 14:19 | 46.89195 | 8.38935 | 32161 ft | 416 kts | 179° |
| 2026-05-07 14:19 | 46.86327 | 8.39323 | 31693 ft | 412 kts | 179° |
| 2026-05-07 14:19 | 46.83485 | 8.39710 | 31232 ft | 409 kts | 179° |
| 2026-05-07 14:20 | 46.80663 | 8.40096 | 30763 ft | 406 kts | 179° |
| 2026-05-07 14:20 | 46.78808 | 8.40348 | 30462 ft | 403 kts | 179° |
| 2026-05-07 14:20 | 46.75090 | 8.40850 | 29847 ft | 399 kts | 179° |
| 2026-05-07 14:20 | 46.72337 | 8.41221 | 29325 ft | 396 kts | 179° |
| 2026-05-07 14:21 | 46.69606 | 8.41588 | 28823 ft | 393 kts | 179° |
| 2026-05-07 14:21 | 46.67806 | 8.41829 | 28465 ft | 391 kts | 178° |
| 2026-05-07 14:21 | 46.65114 | 8.42189 | 27897 ft | 388 kts | 178° |
| 2026-05-07 14:21 | 46.62433 | 8.42548 | 27341 ft | 385 kts | 178° |
| 2026-05-07 14:22 | 46.58889 | 8.43023 | 26667 ft | 380 kts | 178° |
| 2026-05-07 14:22 | 46.57150 | 8.43256 | 26353 ft | 378 kts | 178° |
| 2026-05-07 14:22 | 46.54540 | 8.43604 | 25885 ft | 375 kts | 178° |
| 2026-05-07 14:22 | 46.51951 | 8.43949 | 25407 ft | 373 kts | 178° |
| 2026-05-07 14:23 | 46.49375 | 8.44294 | 25012 ft | 369 kts | 178° |
| 2026-05-07 14:23 | 46.46818 | 8.44638 | 24769 ft | 369 kts | 178° |
| 2026-05-07 14:23 | 46.44279 | 8.44977 | 24512 ft | 363 kts | 177° |
| 2026-05-07 14:23 | 46.41776 | 8.45309 | 24122 ft | 360 kts | 177° |
| 2026-05-07 14:24 | 46.39293 | 8.45636 | 23721 ft | 357 kts | 177° |
| 2026-05-07 14:24 | 46.36832 | 8.45964 | 23267 ft | 354 kts | 177° |
| 2026-05-07 14:24 | 46.34395 | 8.46291 | 22852 ft | 349 kts | 177° |
| 2026-05-07 14:24 | 46.31992 | 8.46612 | 22455 ft | 344 kts | 177° |
| 2026-05-07 14:25 | 46.29624 | 8.46926 | 22053 ft | 340 kts | 177° |
| 2026-05-07 14:25 | 46.27284 | 8.47235 | 21658 ft | 335 kts | 177° |
| 2026-05-07 14:25 | 46.24980 | 8.47547 | 21269 ft | 330 kts | 177° |
| 2026-05-07 14:25 | 46.22710 | 8.47870 | 20906 ft | 326 kts | 177° |
| 2026-05-07 14:26 | 46.20465 | 8.48196 | 20535 ft | 323 kts | 177° |
| 2026-05-07 14:26 | 46.18243 | 8.48520 | 20167 ft | 320 kts | 176° |
| 2026-05-07 14:26 | 46.16032 | 8.48839 | 19809 ft | 319 kts | 177° |
| 2026-05-07 14:26 | 46.13831 | 8.49156 | 19451 ft | 317 kts | 177° |
| 2026-05-07 14:27 | 46.11650 | 8.49511 | 19082 ft | 316 kts | 172° |
| 2026-05-07 14:27 | 46.09530 | 8.50329 | 18723 ft | 316 kts | 161° |
| 2026-05-07 14:27 | 46.07473 | 8.51449 | 18362 ft | 315 kts | 161° |
| 2026-05-07 14:27 | 46.05428 | 8.52555 | 17968 ft | 313 kts | 162° |
| 2026-05-07 14:28 | 46.03419 | 8.53635 | 17605 ft | 312 kts | 162° |
| 2026-05-07 14:28 | 46.01393 | 8.54723 | 17251 ft | 310 kts | 162° |
| 2026-05-07 14:28 | 45.99374 | 8.55806 | 16989 ft | 314 kts | 162° |
| 2026-05-07 14:28 | 45.97272 | 8.56929 | 16983 ft | 328 kts | 162° |
| 2026-05-07 14:29 | 45.95113 | 8.58086 | 16983 ft | 332 kts | 162° |
| 2026-05-07 14:29 | 45.92952 | 8.59247 | 16982 ft | 329 kts | 161° |
| 2026-05-07 14:29 | 45.90784 | 8.60211 | 16981 ft | 324 kts | 172° |
| 2026-05-07 14:29 | 45.88553 | 8.60461 | 16976 ft | 320 kts | 185° |
| 2026-05-07 14:30 | 45.86372 | 8.60034 | 16594 ft | 315 kts | 194° |
| 2026-05-07 14:30 | 45.84232 | 8.59409 | 16133 ft | 313 kts | 194° |
| 2026-05-07 14:30 | 45.82102 | 8.58786 | 15702 ft | 311 kts | 194° |
| 2026-05-07 14:30 | 45.79989 | 8.58168 | 15280 ft | 309 kts | 194° |
| 2026-05-07 14:31 | 45.77887 | 8.57557 | 14864 ft | 307 kts | 194° |
| 2026-05-07 14:31 | 45.75798 | 8.56959 | 14452 ft | 306 kts | 192° |
| 2026-05-07 14:31 | 45.73674 | 8.56752 | 13973 ft | 309 kts | 179° |
| 2026-05-07 14:31 | 45.71536 | 8.57122 | 13356 ft | 309 kts | 174° |
| 2026-05-07 14:32 | 45.69407 | 8.57541 | 12652 ft | 308 kts | 174° |
| 2026-05-07 14:32 | 45.67293 | 8.57952 | 11997 ft | 305 kts | 174° |
| 2026-05-07 14:32 | 45.65195 | 8.58355 | 11371 ft | 303 kts | 174° |
| 2026-05-07 14:32 | 45.63135 | 8.58747 | 11017 ft | 294 kts | 174° |
| 2026-05-07 14:33 | 45.61141 | 8.59125 | 10833 ft | 284 kts | 174° |
| 2026-05-07 14:33 | 45.59206 | 8.59490 | 10583 ft | 279 kts | 174° |
| 2026-05-07 14:33 | 45.57299 | 8.59863 | 10311 ft | 274 kts | 172° |
| 2026-05-07 14:33 | 45.55413 | 8.60332 | 9924 ft | 275 kts | 171° |
| 2026-05-07 14:34 | 45.53545 | 8.60856 | 9568 ft | 274 kts | 170° |
| 2026-05-07 14:34 | 45.51686 | 8.61396 | 9255 ft | 271 kts | 169° |
| 2026-05-07 14:34 | 45.49864 | 8.61925 | 8888 ft | 269 kts | 169° |
| 2026-05-07 14:34 | 45.48005 | 8.62458 | 8526 ft | 268 kts | 169° |
| 2026-05-07 14:35 | 45.46207 | 8.62969 | 8164 ft | 267 kts | 169° |
| 2026-05-07 14:35 | 45.44394 | 8.63478 | 7856 ft | 264 kts | 170° |
| 2026-05-07 14:35 | 45.42592 | 8.63980 | 7545 ft | 262 kts | 170° |
| 2026-05-07 14:35 | 45.40802 | 8.64476 | 7198 ft | 261 kts | 169° |
| 2026-05-07 14:36 | 45.39022 | 8.64967 | 6838 ft | 261 kts | 169° |
| 2026-05-07 14:36 | 45.37268 | 8.65452 | 6713 ft | 251 kts | 169° |
| 2026-05-07 14:36 | 45.35543 | 8.65930 | 6168 ft | 258 kts | 169° |
| 2026-05-07 14:36 | 45.33738 | 8.66421 | 5538 ft | 269 kts | 169° |
| 2026-05-07 14:37 | 45.31895 | 8.67049 | 4923 ft | 277 kts | 158° |
| 2026-05-07 14:37 | 45.29526 | 8.71053 | 4216 ft | 269 kts | 100° |
| 2026-05-07 14:37 | 45.29594 | 8.73638 | 4027 ft | 259 kts | 74° |
| 2026-05-07 14:38 | 45.30266 | 8.75941 | 3962 ft | 245 kts | 63° |
| 2026-05-07 14:38 | 45.31194 | 8.77864 | 3973 ft | 228 kts | 45° |
| 2026-05-07 14:38 | 45.32438 | 8.79182 | 4065 ft | 226 kts | 28° |
| 2026-05-07 14:38 | 45.33913 | 8.79911 | 4041 ft | 225 kts | 9° |
| 2026-05-07 14:39 | 45.35474 | 8.79876 | 4040 ft | 226 kts | 349° |
| 2026-05-07 14:39 | 45.37017 | 8.79458 | 4040 ft | 226 kts | 348° |
| 2026-05-07 14:39 | 45.38558 | 8.79030 | 4022 ft | 226 kts | 349° |
| 2026-05-07 14:39 | 45.40099 | 8.78607 | 4033 ft | 225 kts | 349° |
| 2026-05-07 14:40 | 45.41641 | 8.78183 | 4040 ft | 226 kts | 349° |
| 2026-05-07 14:40 | 45.43180 | 8.77757 | 4037 ft | 226 kts | 349° |
| 2026-05-07 14:40 | 45.44724 | 8.77335 | 3993 ft | 227 kts | 349° |
| 2026-05-07 14:40 | 45.46268 | 8.76904 | 3705 ft | 224 kts | 349° |
| 2026-05-07 14:41 | 45.47797 | 8.76486 | 3441 ft | 223 kts | 349° |
| 2026-05-07 14:41 | 45.49318 | 8.76072 | 3161 ft | 222 kts | 349° |
| 2026-05-07 14:41 | 45.50834 | 8.75652 | 2859 ft | 221 kts | 348° |
| 2026-05-07 14:41 | 45.52336 | 8.75226 | 2538 ft | 219 kts | 349° |
| 2026-05-07 14:42 | 45.53810 | 8.74835 | 2251 ft | 211 kts | 349° |
| 2026-05-07 14:42 | 45.55190 | 8.74463 | 2010 ft | 192 kts | 349° |
| 2026-05-07 14:42 | 45.56408 | 8.74125 | 1819 ft | 167 kts | 349° |
| 2026-05-07 14:42 | 45.57516 | 8.73835 | 1464 ft | 157 kts | 348° |
| 2026-05-07 14:43 | 45.58563 | 8.73540 | 1286 ft | 151 kts | 347° |
| 2026-05-07 14:43 | 45.59589 | 8.73243 | 1102 ft | 150 kts | 348° |
| 2026-05-07 14:43 | 45.60610 | 8.72958 | 926 ft | 150 kts | 348° |
| 2026-05-07 14:43 | 45.61631 | 8.72679 | 753 ft | 145 kts | 349° |
| 2026-05-07 14:44 | 45.62457 | 8.72448 | 738 ft | 94 kts | 349° |
| 2026-05-07 14:44 | 45.62917 | 8.72321 | 742 ft | 38 kts | 349° |
| 2026-05-07 14:44 | 45.63023 | 8.72247 | 743 ft | 15 kts | 291° |
| 2026-05-07 14:44 | 45.63012 | 8.72103 | 740 ft | 14 kts | 260° |
| 2026-05-07 14:45 | 45.62993 | 8.71955 | 741 ft | 16 kts | 258° |
| 2026-05-07 14:45 | 45.62973 | 8.71817 | 741 ft | 12 kts | 259° |
| 2026-05-07 14:45 | 45.62935 | 8.71754 | 741 ft | 9 kts | 183° |
| 2026-05-07 14:45 | 45.62867 | 8.71771 | 741 ft | 11 kts | 169° |
| 2026-05-07 14:46 | 45.62796 | 8.71788 | 741 ft | 7 kts | 180° |
| 2026-05-07 14:46 | 45.62781 | 8.71746 | 740 ft | 3 kts | 261° |
| 2026-05-07 14:46 | 45.62777 | 8.71713 | 741 ft | 4 kts | 260° |
| 2026-05-07 14:46 | 45.62774 | 8.71690 | 741 ft | 2 kts | 260° |
| 2026-05-07 14:47 | 45.62773 | 8.71682 | 741 ft | 0 kts | 260° |